Address 0x58f97434ea8047186a584ea518a2612481c85350 1

 
 
Txn Hash Method
Block
From
To
Value [Txn Fee]
0x712fad66cba897d287790f47098dadbd093c1e1a678240e45dcef1d492d2861cApprove108781772021-09-13 12:31:4933 days 10 mins ago0x58f97434ea8047186a584ea518a2612481c85350OUT BUSD-T Stablecoin0 BNB0.00022203
0xfdecc0a1c09f1c82f8b3078d5b41095881e2b735d127e9efac738a12cebc96baHarvest108776502021-09-13 12:04:3933 days 37 mins ago0x58f97434ea8047186a584ea518a2612481c85350OUT PancakeSwap: Auto CAKE Syrup Pool0 BNB0.00077599
0xb844e58d979496e311e58e5876071b1de9f1fffdd54b8dcda1178dc908bbe550Swap Exact ETH F...92895892021-07-19 9:27:3989 days 3 hrs ago0x58f97434ea8047186a584ea518a2612481c85350OUT PancakeSwap: Router v25.475700731673513 BNB0.00067176
0xa5fe8a507f81ad34325987bd91590e4c346edff8a06a1ca7385c116a1130ca74Swap Exact Token...84715272021-06-20 21:12:26117 days 15 hrs ago0x58f97434ea8047186a584ea518a2612481c85350OUT PancakeSwap: Router v20 BNB0.00117208
0xa0cedf430eacbc2af36f6a50d4114f075b3bb6cf7ea3e9a240b239da7e7e45beApprove84698062021-06-20 19:46:23117 days 16 hrs ago0x58f97434ea8047186a584ea518a2612481c85350OUT BidenSwap: BIDN Token0 BNB0.00022252
0x9812870f9fe7aeeeb250f44d6260a4b5e1d76a7b98081c66a2a3297fae169622Swap Exact ETH F...84695242021-06-20 19:32:17117 days 17 hrs ago0x58f97434ea8047186a584ea518a2612481c85350OUT PancakeSwap: Router v20.5 BNB0.00103367
0x194de4d6074aa203b43f691b37d63e8fb046d9da8cee08a304f1581798e453e7Swap Exact ETH F...84694022021-06-20 19:26:11117 days 17 hrs ago0x58f97434ea8047186a584ea518a2612481c85350OUT PancakeSwap: Router v20.3 BNB0.00103367
0x1c157ca5f95a2854b774ae0886cdf320354d4c9f746faedd909ae6cf457cb2b9Swap Exact ETH F...84693812021-06-20 19:25:08117 days 17 hrs ago0x58f97434ea8047186a584ea518a2612481c85350OUT PancakeSwap: Router v20.2 BNB0.00103367
0x477828d0ce3ba9dd715dd2498de08d18cedb2f86e07f55b943ab91c45195db6bSwap Exact ETH F...84693702021-06-20 19:24:35117 days 17 hrs ago0x58f97434ea8047186a584ea518a2612481c85350OUT PancakeSwap: Router v20.2 BNB0.00103367
0xf76ec90a2772ae0b0767d30f17ec9d70c3866d2e580aa5b3a778864bd3ff00cfSwap Exact ETH F...84693582021-06-20 19:23:59117 days 17 hrs ago0x58f97434ea8047186a584ea518a2612481c85350OUT PancakeSwap: Router v20.2 BNB0.00103367
0x2dad2456953e1313c24514992b0bd20821b7538029da195985fc49e4b111ceebSwap Exact ETH F...84693442021-06-20 19:23:17117 days 17 hrs ago0x58f97434ea8047186a584ea518a2612481c85350OUT PancakeSwap: Router v20.2 BNB0.00103367
0x21b586ce088c4a96335d69c9f36f514c11dec1281814c30916d3ae3ee00ddbfbSwap Exact ETH F...84693352021-06-20 19:22:50117 days 17 hrs ago0x58f97434ea8047186a584ea518a2612481c85350OUT PancakeSwap: Router v20.1 BNB0.00103367
0xa0f354d2b9aa9644e80374341bc92d1abdbb6567f9fc975c06dd059b080a0362Swap Exact ETH F...84692292021-06-20 19:17:32117 days 17 hrs ago0x58f97434ea8047186a584ea518a2612481c85350OUT PancakeSwap: Router v20.1 BNB0.00097325
0x7c6e7423a1b69e09659da3cb983d649081a3995c8ee9f65c1066a269143e980eSwap Exact ETH F...84691852021-06-20 19:15:20117 days 17 hrs ago0x58f97434ea8047186a584ea518a2612481c85350OUT PancakeSwap: Router v20.06 BNB0.00103367
0x430bdedc07829052305064c510392cd013d3251d884daa7e0ff7ab6eff9227cdSwap Exact ETH F...84691742021-06-20 19:14:47117 days 17 hrs ago0x58f97434ea8047186a584ea518a2612481c85350OUT PancakeSwap: Router v20.07 BNB0.00103367
0xcacc6f6b38a24f15bf3c541f09b9c5e6341bce76d099c95ffd8d8158f1b554f7Swap Exact ETH F...84691552021-06-20 19:13:50117 days 17 hrs ago0x58f97434ea8047186a584ea518a2612481c85350OUT PancakeSwap: Router v20.06 BNB0.00110867
0x3a380c50e1ce17e1ebfee261426b0a3fa93a83907cd9e7d1fbee02483d0c27d2Swap Exact Token...81245592021-06-08 17:54:42129 days 18 hrs ago0x58f97434ea8047186a584ea518a2612481c85350OUT PancakeSwap: Router v20 BNB0.000613995
0x0e7a0b267bc5fc4c7ae82cb7e71294414353ddcbbf674fcb4e14e5c58ab596dbSwap Exact ETH F...81235942021-06-08 17:06:27129 days 19 hrs ago0x58f97434ea8047186a584ea518a2612481c85350OUT PancakeSwap: Router v23.99938672 BNB0.00053828
0x92d5f85906726f1645528ce6335d69300dd5417e2a1478c6cf2f3e1c91eed018Swap Exact ETH F...81235682021-06-08 17:05:09129 days 19 hrs ago0x58f97434ea8047186a584ea518a2612481c85350OUT PancakeSwap: Router v24.97307225644897 BNB0.00061328
0xc1da656c5901f6f0824578356965aa910b53c7076a530e22f25d9d34e6cf7cd2Swap Exact Token...80672552021-06-06 18:05:17131 days 18 hrs ago0x58f97434ea8047186a584ea518a2612481c85350OUT PancakeSwap: Router v20 BNB0.000613995
0x91f258055d892acedfa26e526a867042ce9534e68219d0c27330327deb470329Swap Exact ETH F...80659782021-06-06 17:01:24131 days 19 hrs ago0x58f97434ea8047186a584ea518a2612481c85350OUT PancakeSwap: Router v27.580180785605514 BNB0.00061334
0x38ba46ab0b4337cda7235601a9233832d151aba983b1fad41d3dd5066a57301eSwap Exact Token...80651982021-06-06 16:22:24131 days 20 hrs ago0x58f97434ea8047186a584ea518a2612481c85350OUT PancakeSwap: Router v20 BNB0.000613995
0x7fe735c68998645a234ec8d61b58341262358b6fe2bc9a311482bc457d1e0c43Swap Exact ETH F...80623772021-06-06 14:00:44131 days 22 hrs ago0x58f97434ea8047186a584ea518a2612481c85350OUT PancakeSwap: Router v28.025530377956048 BNB0.00061334
0x182824f7138a9d560c5e66838367cda095a58cd1622d050d25f2bf29444655cbSwap Exact Token...80597072021-06-06 11:47:10132 days 55 mins ago0x58f97434ea8047186a584ea518a2612481c85350OUT PancakeSwap: Router v20 BNB0.00061307
0xcf81c3794e72711cec2b983a49a4964c30dec0678833eb179e192946bc0ba9eaSwap Exact Token...80593252021-06-06 11:28:04132 days 1 hr ago0x58f97434ea8047186a584ea518a2612481c85350OUT PancakeSwap: Router v20 BNB0.000613935
[ Download CSV Export 
Latest 6 internal transactions
Parent Txn Hash Block From To Value
0xa5fe8a507f81ad34325987bd91590e4c346edff8a06a1ca7385c116a1130ca7484715272021-06-20 21:12:26117 days 15 hrs ago PancakeSwap: Router v20x58f97434ea8047186a584ea518a2612481c853500.000000038901960632 BNB
0x3a380c50e1ce17e1ebfee261426b0a3fa93a83907cd9e7d1fbee02483d0c27d281245592021-06-08 17:54:42129 days 18 hrs ago PancakeSwap: Router v20x58f97434ea8047186a584ea518a2612481c853507.479632517771552882 BNB
0xc1da656c5901f6f0824578356965aa910b53c7076a530e22f25d9d34e6cf7cd280672552021-06-06 18:05:17131 days 18 hrs ago PancakeSwap: Router v20x58f97434ea8047186a584ea518a2612481c853508.974299591448970364 BNB
0x38ba46ab0b4337cda7235601a9233832d151aba983b1fad41d3dd5066a57301e80651982021-06-06 16:22:24131 days 20 hrs ago PancakeSwap: Router v20x58f97434ea8047186a584ea518a2612481c853507.58140812060551478 BNB
0x182824f7138a9d560c5e66838367cda095a58cd1622d050d25f2bf29444655cb80597072021-06-06 11:47:10132 days 55 mins ago PancakeSwap: Router v20x58f97434ea8047186a584ea518a2612481c853506.147516561467730723 BNB
0xcf81c3794e72711cec2b983a49a4964c30dec0678833eb179e192946bc0ba9ea80593252021-06-06 11:28:04132 days 1 hr ago PancakeSwap: Router v20x58f97434ea8047186a584ea518a2612481c853501.879839521488318127 BNB
[ Download CSV Export 
Loading

Contract Name:
0 BNB

Compiler Version
0

Optimization Enabled:
0 BNB

Other Settings:
-NA-
Block Transaction Gas Used Reward
Age Block Fee Address BC Fee Address Voting Power Jailed Incoming
Block Uncle Number Difficulty Gas Used Reward
Loading
Loading
Make sure to use the "Vote Down" button for any spammy posts, and the "Vote Up" for interesting conversations.